sensor_id;sensor_type;location;lat;lon;timestamp;P1;durP1;ratioP1;P2;durP2;ratioP2
35897;SDS011;21997;47.118;15.346;2023-06-22T00:01:10;12.77;;;7.03;;
35897;SDS011;21997;47.118;15.346;2023-06-22T00:03:36;12.83;;;7.07;;
35897;SDS011;21997;47.118;15.346;2023-06-22T00:06:01;11.83;;;7.33;;
35897;SDS011;21997;47.118;15.346;2023-06-22T00:08:26;10.67;;;7.40;;
35897;SDS011;21997;47.118;15.346;2023-06-22T00:10:52;11.20;;;6.10;;
35897;SDS011;21997;47.118;15.346;2023-06-22T00:13:17;10.93;;;6.83;;
35897;SDS011;21997;47.118;15.346;2023-06-22T00:15:43;11.37;;;7.10;;
35897;SDS011;21997;47.118;15.346;2023-06-22T00:18:09;11.30;;;7.13;;
35897;SDS011;21997;47.118;15.346;2023-06-22T00:20:35;8.43;;;7.23;;
35897;SDS011;21997;47.118;15.346;2023-06-22T00:23:05;11.40;;;7.73;;
35897;SDS011;21997;47.118;15.346;2023-06-22T00:25:42;15.20;;;7.60;;
35897;SDS011;21997;47.118;15.346;2023-06-22T00:28:08;9.13;;;7.03;;
35897;SDS011;21997;47.118;15.346;2023-06-22T00:30:33;10.03;;;7.77;;
35897;SDS011;21997;47.118;15.346;2023-06-22T00:32:59;9.43;;;7.33;;
35897;SDS011;21997;47.118;15.346;2023-06-22T00:35:25;12.77;;;7.20;;
35897;SDS011;21997;47.118;15.346;2023-06-22T00:37:58;10.60;;;7.70;;
35897;SDS011;21997;47.118;15.346;2023-06-22T00:40:29;11.20;;;8.10;;
35897;SDS011;21997;47.118;15.346;2023-06-22T00:42:55;14.67;;;6.93;;
35897;SDS011;21997;47.118;15.346;2023-06-22T00:45:20;10.53;;;7.87;;
35897;SDS011;21997;47.118;15.346;2023-06-22T00:47:48;10.57;;;7.70;;
35897;SDS011;21997;47.118;15.346;2023-06-22T00:50:17;12.87;;;7.50;;
35897;SDS011;21997;47.118;15.346;2023-06-22T00:52:47;13.67;;;7.70;;
35897;SDS011;21997;47.118;15.346;2023-06-22T00:55:15;11.10;;;7.27;;
35897;SDS011;21997;47.118;15.346;2023-06-22T00:57:43;14.27;;;6.93;;
35897;SDS011;21997;47.118;15.346;2023-06-22T01:00:11;14.93;;;7.83;;
35897;SDS011;21997;47.118;15.346;2023-06-22T01:02:44;14.70;;;7.17;;
35897;SDS011;21997;47.118;15.346;2023-06-22T01:05:13;8.70;;;7.20;;
35897;SDS011;21997;47.118;15.346;2023-06-22T01:13:26;11.83;;;8.33;;
35897;SDS011;21997;47.118;15.346;2023-06-22T01:16:14;11.03;;;7.90;;
35897;SDS011;21997;47.118;15.346;2023-06-22T01:18:49;10.30;;;7.33;;
35897;SDS011;21997;47.118;15.346;2023-06-22T01:21:17;15.10;;;8.20;;
35897;SDS011;21997;47.118;15.346;2023-06-22T01:29:38;12.00;;;7.80;;
35897;SDS011;21997;47.118;15.346;2023-06-22T01:32:05;11.10;;;8.33;;
35897;SDS011;21997;47.118;15.346;2023-06-22T01:34:31;11.10;;;8.43;;
35897;SDS011;21997;47.118;15.346;2023-06-22T01:36:57;14.87;;;8.53;;
35897;SDS011;21997;47.118;15.346;2023-06-22T01:39:23;11.13;;;8.53;;
35897;SDS011;21997;47.118;15.346;2023-06-22T01:41:49;10.63;;;8.13;;
35897;SDS011;21997;47.118;15.346;2023-06-22T01:44:15;13.50;;;9.43;;
35897;SDS011;21997;47.118;15.346;2023-06-22T01:46:41;13.07;;;8.57;;
35897;SDS011;21997;47.118;15.346;2023-06-22T01:49:06;11.07;;;8.50;;
35897;SDS011;21997;47.118;15.346;2023-06-22T01:51:32;12.77;;;8.47;;
35897;SDS011;21997;47.118;15.346;2023-06-22T01:53:58;10.57;;;8.17;;
35897;SDS011;21997;47.118;15.346;2023-06-22T01:56:23;12.33;;;9.17;;
35897;SDS011;21997;47.118;15.346;2023-06-22T01:59:01;11.37;;;9.33;;
35897;SDS011;21997;47.118;15.346;2023-06-22T02:01:29;13.40;;;9.40;;
35897;SDS011;21997;47.118;15.346;2023-06-22T02:04:08;12.67;;;8.23;;
35897;SDS011;21997;47.118;15.346;2023-06-22T02:06:38;12.53;;;8.20;;
35897;SDS011;21997;47.118;15.346;2023-06-22T02:09:08;10.43;;;8.43;;
35897;SDS011;21997;47.118;15.346;2023-06-22T02:11:35;14.93;;;8.97;;
35897;SDS011;21997;47.118;15.346;2023-06-22T02:14:02;10.57;;;8.27;;
35897;SDS011;21997;47.118;15.346;2023-06-22T02:16:27;11.87;;;9.10;;
35897;SDS011;21997;47.118;15.346;2023-06-22T02:18:55;11.90;;;9.03;;
35897;SDS011;21997;47.118;15.346;2023-06-22T02:21:23;14.10;;;9.07;;
35897;SDS011;21997;47.118;15.346;2023-06-22T02:23:48;13.67;;;8.90;;
35897;SDS011;21997;47.118;15.346;2023-06-22T02:26:17;12.03;;;7.93;;
35897;SDS011;21997;47.118;15.346;2023-06-22T02:28:43;11.80;;;9.27;;
35897;SDS011;21997;47.118;15.346;2023-06-22T02:31:08;13.07;;;8.63;;
35897;SDS011;21997;47.118;15.346;2023-06-22T02:33:33;11.50;;;8.33;;
35897;SDS011;21997;47.118;15.346;2023-06-22T02:35:59;11.47;;;7.93;;
35897;SDS011;21997;47.118;15.346;2023-06-22T02:38:24;13.83;;;8.33;;
35897;SDS011;21997;47.118;15.346;2023-06-22T02:40:50;10.47;;;8.87;;
35897;SDS011;21997;47.118;15.346;2023-06-22T02:43:15;11.33;;;8.83;;
35897;SDS011;21997;47.118;15.346;2023-06-22T02:45:41;12.83;;;8.53;;
35897;SDS011;21997;47.118;15.346;2023-06-22T02:48:07;14.93;;;8.77;;
35897;SDS011;21997;47.118;15.346;2023-06-22T02:50:32;14.73;;;9.10;;
35897;SDS011;21997;47.118;15.346;2023-06-22T02:52:58;13.63;;;8.47;;
35897;SDS011;21997;47.118;15.346;2023-06-22T02:55:23;11.97;;;8.83;;
35897;SDS011;21997;47.118;15.346;2023-06-22T02:57:48;14.80;;;8.87;;
35897;SDS011;21997;47.118;15.346;2023-06-22T03:00:17;13.27;;;8.73;;
35897;SDS011;21997;47.118;15.346;2023-06-22T03:02:43;12.67;;;9.03;;
35897;SDS011;21997;47.118;15.346;2023-06-22T03:05:09;13.87;;;8.63;;
35897;SDS011;21997;47.118;15.346;2023-06-22T03:07:38;13.70;;;8.83;;
35897;SDS011;21997;47.118;15.346;2023-06-22T03:10:07;11.20;;;8.87;;
35897;SDS011;21997;47.118;15.346;2023-06-22T03:12:34;12.47;;;8.20;;
35897;SDS011;21997;47.118;15.346;2023-06-22T03:14:59;9.70;;;7.43;;
35897;SDS011;21997;47.118;15.346;2023-06-22T03:17:25;11.80;;;7.90;;
35897;SDS011;21997;47.118;15.346;2023-06-22T03:19:50;13.53;;;8.40;;
35897;SDS011;21997;47.118;15.346;2023-06-22T03:22:15;11.10;;;8.00;;
35897;SDS011;21997;47.118;15.346;2023-06-22T03:24:41;12.70;;;8.33;;
35897;SDS011;21997;47.118;15.346;2023-06-22T03:27:06;14.03;;;8.33;;
35897;SDS011;21997;47.118;15.346;2023-06-22T03:29:32;10.60;;;7.90;;
35897;SDS011;21997;47.118;15.346;2023-06-22T03:31:57;12.17;;;9.07;;
35897;SDS011;21997;47.118;15.346;2023-06-22T03:34:22;12.13;;;9.17;;
35897;SDS011;21997;47.118;15.346;2023-06-22T03:36:48;17.67;;;8.70;;
35897;SDS011;21997;47.118;15.346;2023-06-22T03:39:13;13.27;;;9.43;;
35897;SDS011;21997;47.118;15.346;2023-06-22T03:41:39;12.67;;;9.27;;
35897;SDS011;21997;47.118;15.346;2023-06-22T03:44:04;12.33;;;8.57;;
35897;SDS011;21997;47.118;15.346;2023-06-22T03:46:29;10.20;;;8.77;;
35897;SDS011;21997;47.118;15.346;2023-06-22T03:48:55;12.43;;;9.03;;
35897;SDS011;21997;47.118;15.346;2023-06-22T03:51:20;14.33;;;9.10;;
35897;SDS011;21997;47.118;15.346;2023-06-22T03:53:46;12.57;;;8.60;;
35897;SDS011;21997;47.118;15.346;2023-06-22T03:56:11;12.03;;;9.40;;
35897;SDS011;21997;47.118;15.346;2023-06-22T03:58:37;11.20;;;8.93;;
35897;SDS011;21997;47.118;15.346;2023-06-22T04:01:07;16.77;;;9.63;;
35897;SDS011;21997;47.118;15.346;2023-06-22T04:03:36;12.87;;;8.80;;
35897;SDS011;21997;47.118;15.346;2023-06-22T04:06:02;15.10;;;9.23;;
35897;SDS011;21997;47.118;15.346;2023-06-22T04:08:27;12.90;;;8.67;;
35897;SDS011;21997;47.118;15.346;2023-06-22T04:10:53;15.47;;;9.03;;
35897;SDS011;21997;47.118;15.346;2023-06-22T04:13:18;15.57;;;9.13;;
35897;SDS011;21997;47.118;15.346;2023-06-22T04:15:44;11.80;;;9.27;;
35897;SDS011;21997;47.118;15.346;2023-06-22T04:18:10;15.20;;;9.57;;
35897;SDS011;21997;47.118;15.346;2023-06-22T04:20:35;14.90;;;9.63;;
35897;SDS011;21997;47.118;15.346;2023-06-22T04:23:01;13.77;;;10.00;;
35897;SDS011;21997;47.118;15.346;2023-06-22T04:25:26;9.97;;;8.87;;
35897;SDS011;21997;47.118;15.346;2023-06-22T04:27:52;15.07;;;9.73;;
35897;SDS011;21997;47.118;15.346;2023-06-22T04:30:17;12.27;;;9.93;;
35897;SDS011;21997;47.118;15.346;2023-06-22T04:32:43;14.20;;;9.50;;
35897;SDS011;21997;47.118;15.346;2023-06-22T04:35:09;11.87;;;9.53;;
35897;SDS011;21997;47.118;15.346;2023-06-22T04:37:34;14.00;;;10.03;;
35897;SDS011;21997;47.118;15.346;2023-06-22T04:40:00;13.90;;;9.60;;
35897;SDS011;21997;47.118;15.346;2023-06-22T04:42:25;15.17;;;10.07;;
35897;SDS011;21997;47.118;15.346;2023-06-22T04:44:51;11.27;;;9.30;;
35897;SDS011;21997;47.118;15.346;2023-06-22T04:47:16;11.30;;;9.63;;
35897;SDS011;21997;47.118;15.346;2023-06-22T04:49:42;14.90;;;9.73;;
35897;SDS011;21997;47.118;15.346;2023-06-22T04:52:09;15.17;;;10.27;;
35897;SDS011;21997;47.118;15.346;2023-06-22T04:54:36;11.17;;;9.23;;
35897;SDS011;21997;47.118;15.346;2023-06-22T04:57:03;11.93;;;9.57;;
35897;SDS011;21997;47.118;15.346;2023-06-22T04:59:34;11.07;;;9.87;;
35897;SDS011;21997;47.118;15.346;2023-06-22T05:02:00;14.40;;;9.80;;
35897;SDS011;21997;47.118;15.346;2023-06-22T05:04:27;11.47;;;10.07;;
35897;SDS011;21997;47.118;15.346;2023-06-22T05:06:56;13.90;;;9.27;;
35897;SDS011;21997;47.118;15.346;2023-06-22T05:09:22;13.07;;;9.70;;
35897;SDS011;21997;47.118;15.346;2023-06-22T05:11:48;12.50;;;9.07;;
35897;SDS011;21997;47.118;15.346;2023-06-22T05:14:14;13.40;;;10.27;;
35897;SDS011;21997;47.118;15.346;2023-06-22T05:16:41;13.07;;;10.47;;
35897;SDS011;21997;47.118;15.346;2023-06-22T05:19:07;15.30;;;9.30;;
35897;SDS011;21997;47.118;15.346;2023-06-22T05:21:32;14.50;;;9.47;;
35897;SDS011;21997;47.118;15.346;2023-06-22T05:23:58;15.40;;;10.23;;
35897;SDS011;21997;47.118;15.346;2023-06-22T05:26:32;18.90;;;10.73;;
35897;SDS011;21997;47.118;15.346;2023-06-22T05:28:58;15.40;;;10.27;;
35897;SDS011;21997;47.118;15.346;2023-06-22T05:31:25;14.20;;;10.07;;
35897;SDS011;21997;47.118;15.346;2023-06-22T05:33:51;12.17;;;9.33;;
35897;SDS011;21997;47.118;15.346;2023-06-22T05:36:17;14.97;;;9.90;;
35897;SDS011;21997;47.118;15.346;2023-06-22T05:38:44;13.83;;;9.93;;
35897;SDS011;21997;47.118;15.346;2023-06-22T05:41:10;13.00;;;9.70;;
35897;SDS011;21997;47.118;15.346;2023-06-22T05:43:36;13.47;;;9.87;;
35897;SDS011;21997;47.118;15.346;2023-06-22T05:46:02;14.03;;;10.40;;
35897;SDS011;21997;47.118;15.346;2023-06-22T05:48:27;12.40;;;8.97;;
35897;SDS011;21997;47.118;15.346;2023-06-22T05:50:53;17.60;;;10.33;;
35897;SDS011;21997;47.118;15.346;2023-06-22T05:53:18;13.13;;;9.27;;
35897;SDS011;21997;47.118;15.346;2023-06-22T05:55:44;15.73;;;9.93;;
35897;SDS011;21997;47.118;15.346;2023-06-22T05:58:09;11.30;;;10.13;;
35897;SDS011;21997;47.118;15.346;2023-06-22T06:00:35;12.53;;;8.90;;
35897;SDS011;21997;47.118;15.346;2023-06-22T06:03:01;12.43;;;9.40;;
35897;SDS011;21997;47.118;15.346;2023-06-22T06:05:30;13.23;;;9.73;;
35897;SDS011;21997;47.118;15.346;2023-06-22T06:07:56;14.37;;;9.70;;
35897;SDS011;21997;47.118;15.346;2023-06-22T06:10:21;15.77;;;9.83;;
35897;SDS011;21997;47.118;15.346;2023-06-22T06:12:47;17.60;;;10.73;;
35897;SDS011;21997;47.118;15.346;2023-06-22T06:15:12;12.93;;;10.53;;
35897;SDS011;21997;47.118;15.346;2023-06-22T06:17:47;10.67;;;9.50;;
35897;SDS011;21997;47.118;15.346;2023-06-22T06:20:18;10.67;;;9.57;;
35897;SDS011;21997;47.118;15.346;2023-06-22T06:22:45;12.00;;;9.93;;
35897;SDS011;21997;47.118;15.346;2023-06-22T06:25:10;12.40;;;9.40;;
35897;SDS011;21997;47.118;15.346;2023-06-22T06:27:44;12.87;;;9.57;;
35897;SDS011;21997;47.118;15.346;2023-06-22T06:30:14;12.10;;;10.10;;
35897;SDS011;21997;47.118;15.346;2023-06-22T06:32:41;15.60;;;9.97;;
35897;SDS011;21997;47.118;15.346;2023-06-22T06:35:07;13.63;;;10.43;;
35897;SDS011;21997;47.118;15.346;2023-06-22T06:37:37;11.80;;;10.07;;
35897;SDS011;21997;47.118;15.346;2023-06-22T06:40:04;11.47;;;9.30;;
35897;SDS011;21997;47.118;15.346;2023-06-22T06:42:35;11.57;;;9.70;;
35897;SDS011;21997;47.118;15.346;2023-06-22T06:45:02;15.90;;;9.07;;
35897;SDS011;21997;47.118;15.346;2023-06-22T06:47:28;12.10;;;10.10;;
35897;SDS011;21997;47.118;15.346;2023-06-22T06:49:53;12.47;;;9.10;;
35897;SDS011;21997;47.118;15.346;2023-06-22T06:52:18;13.27;;;9.83;;
35897;SDS011;21997;47.118;15.346;2023-06-22T06:54:45;12.33;;;9.07;;
35897;SDS011;21997;47.118;15.346;2023-06-22T06:57:10;13.20;;;8.93;;
35897;SDS011;21997;47.118;15.346;2023-06-22T06:59:38;12.77;;;9.77;;
35897;SDS011;21997;47.118;15.346;2023-06-22T07:02:04;15.23;;;9.97;;
35897;SDS011;21997;47.118;15.346;2023-06-22T07:04:29;12.07;;;10.23;;
35897;SDS011;21997;47.118;15.346;2023-06-22T07:06:55;13.53;;;9.20;;
35897;SDS011;21997;47.118;15.346;2023-06-22T07:09:20;14.50;;;10.00;;
35897;SDS011;21997;47.118;15.346;2023-06-22T07:11:45;10.63;;;9.00;;
35897;SDS011;21997;47.118;15.346;2023-06-22T07:14:11;15.33;;;9.27;;
35897;SDS011;21997;47.118;15.346;2023-06-22T07:16:36;13.00;;;9.23;;
35897;SDS011;21997;47.118;15.346;2023-06-22T07:19:02;12.87;;;9.30;;
35897;SDS011;21997;47.118;15.346;2023-06-22T07:21:27;10.93;;;8.53;;
35897;SDS011;21997;47.118;15.346;2023-06-22T07:23:52;11.07;;;7.43;;
35897;SDS011;21997;47.118;15.346;2023-06-22T07:26:19;10.60;;;8.77;;
35897;SDS011;21997;47.118;15.346;2023-06-22T07:28:44;11.13;;;9.17;;
35897;SDS011;21997;47.118;15.346;2023-06-22T07:31:10;15.13;;;9.27;;
35897;SDS011;21997;47.118;15.346;2023-06-22T07:33:35;12.67;;;9.03;;
35897;SDS011;21997;47.118;15.346;2023-06-22T07:36:00;13.27;;;9.93;;
35897;SDS011;21997;47.118;15.346;2023-06-22T07:38:27;12.20;;;9.00;;
35897;SDS011;21997;47.118;15.346;2023-06-22T07:40:53;12.73;;;9.90;;
35897;SDS011;21997;47.118;15.346;2023-06-22T07:43:18;12.85;;;9.38;;
35897;SDS011;21997;47.118;15.346;2023-06-22T07:45:50;13.93;;;9.32;;
35897;SDS011;21997;47.118;15.346;2023-06-22T07:48:22;16.40;;;9.40;;
35897;SDS011;21997;47.118;15.346;2023-06-22T07:50:48;13.80;;;9.23;;
35897;SDS011;21997;47.118;15.346;2023-06-22T07:53:13;13.07;;;8.23;;
35897;SDS011;21997;47.118;15.346;2023-06-22T07:55:39;11.75;;;9.07;;
35897;SDS011;21997;47.118;15.346;2023-06-22T07:58:04;11.73;;;8.90;;
35897;SDS011;21997;47.118;15.346;2023-06-22T08:00:29;13.52;;;9.68;;
35897;SDS011;21997;47.118;15.346;2023-06-22T08:02:55;16.88;;;9.40;;
35897;SDS011;21997;47.118;15.346;2023-06-22T08:05:21;13.73;;;9.52;;
35897;SDS011;21997;47.118;15.346;2023-06-22T08:07:46;10.93;;;7.78;;
35897;SDS011;21997;47.118;15.346;2023-06-22T08:10:12;12.35;;;8.20;;
35897;SDS011;21997;47.118;15.346;2023-06-22T08:12:38;14.43;;;8.80;;
35897;SDS011;21997;47.118;15.346;2023-06-22T08:15:04;16.63;;;9.05;;
35897;SDS011;21997;47.118;15.346;2023-06-22T08:17:30;13.20;;;9.85;;
35897;SDS011;21997;47.118;15.346;2023-06-22T08:19:56;11.27;;;7.93;;
35897;SDS011;21997;47.118;15.346;2023-06-22T08:22:22;11.93;;;9.13;;
35897;SDS011;21997;47.118;15.346;2023-06-22T08:24:48;13.50;;;9.40;;
35897;SDS011;21997;47.118;15.346;2023-06-22T08:27:13;13.55;;;9.05;;
35897;SDS011;21997;47.118;15.346;2023-06-22T08:29:40;9.65;;;8.27;;
35897;SDS011;21997;47.118;15.346;2023-06-22T08:32:08;11.45;;;9.02;;
35897;SDS011;21997;47.118;15.346;2023-06-22T08:34:34;13.55;;;9.00;;
35897;SDS011;21997;47.118;15.346;2023-06-22T08:36:59;11.18;;;8.43;;
35897;SDS011;21997;47.118;15.346;2023-06-22T08:39:25;12.80;;;8.30;;
35897;SDS011;21997;47.118;15.346;2023-06-22T08:41:51;11.05;;;8.73;;
35897;SDS011;21997;47.118;15.346;2023-06-22T08:44:17;12.57;;;7.80;;
35897;SDS011;21997;47.118;15.346;2023-06-22T08:46:43;11.35;;;7.70;;
35897;SDS011;21997;47.118;15.346;2023-06-22T08:49:09;11.43;;;8.73;;
35897;SDS011;21997;47.118;15.346;2023-06-22T08:51:34;9.90;;;8.05;;
35897;SDS011;21997;47.118;15.346;2023-06-22T08:54:00;11.88;;;8.35;;
35897;SDS011;21997;47.118;15.346;2023-06-22T08:56:26;8.80;;;7.82;;
35897;SDS011;21997;47.118;15.346;2023-06-22T08:58:51;10.13;;;8.98;;
35897;SDS011;21997;47.118;15.346;2023-06-22T09:01:16;14.23;;;9.50;;
35897;SDS011;21997;47.118;15.346;2023-06-22T09:03:42;10.25;;;8.68;;
35897;SDS011;21997;47.118;15.346;2023-06-22T09:06:07;10.98;;;9.02;;
35897;SDS011;21997;47.118;15.346;2023-06-22T09:08:35;12.15;;;8.25;;
35897;SDS011;21997;47.118;15.346;2023-06-22T09:11:01;10.77;;;7.53;;
35897;SDS011;21997;47.118;15.346;2023-06-22T09:13:29;9.32;;;6.68;;
35897;SDS011;21997;47.118;15.346;2023-06-22T09:15:55;8.73;;;7.15;;
35897;SDS011;21997;47.118;15.346;2023-06-22T09:18:21;14.35;;;8.43;;
35897;SDS011;21997;47.118;15.346;2023-06-22T09:20:46;12.52;;;8.02;;
35897;SDS011;21997;47.118;15.346;2023-06-22T09:23:11;13.35;;;8.80;;
35897;SDS011;21997;47.118;15.346;2023-06-22T09:25:37;11.93;;;7.40;;
35897;SDS011;21997;47.118;15.346;2023-06-22T09:28:02;10.45;;;7.47;;
35897;SDS011;21997;47.118;15.346;2023-06-22T09:30:28;11.85;;;8.05;;
35897;SDS011;21997;47.118;15.346;2023-06-22T09:32:53;9.52;;;7.13;;
35897;SDS011;21997;47.118;15.346;2023-06-22T09:35:19;10.23;;;6.80;;
35897;SDS011;21997;47.118;15.346;2023-06-22T09:37:45;9.50;;;7.22;;
35897;SDS011;21997;47.118;15.346;2023-06-22T09:40:10;11.82;;;7.40;;
35897;SDS011;21997;47.118;15.346;2023-06-22T09:42:38;9.00;;;8.07;;
35897;SDS011;21997;47.118;15.346;2023-06-22T09:45:04;9.80;;;7.63;;
35897;SDS011;21997;47.118;15.346;2023-06-22T09:47:30;9.85;;;7.68;;
35897;SDS011;21997;47.118;15.346;2023-06-22T09:49:55;8.27;;;7.05;;
35897;SDS011;21997;47.118;15.346;2023-06-22T09:52:21;8.68;;;6.97;;
35897;SDS011;21997;47.118;15.346;2023-06-22T09:54:47;7.88;;;7.07;;
35897;SDS011;21997;47.118;15.346;2023-06-22T09:57:12;12.23;;;7.50;;
35897;SDS011;21997;47.118;15.346;2023-06-22T09:59:38;10.20;;;7.38;;
35897;SDS011;21997;47.118;15.346;2023-06-22T10:02:05;11.35;;;8.43;;
35897;SDS011;21997;47.118;15.346;2023-06-22T10:04:31;10.02;;;7.57;;
35897;SDS011;21997;47.118;15.346;2023-06-22T10:06:56;8.80;;;7.80;;
35897;SDS011;21997;47.118;15.346;2023-06-22T10:09:21;10.35;;;7.70;;
35897;SDS011;21997;47.118;15.346;2023-06-22T10:11:47;10.15;;;6.57;;
35897;SDS011;21997;47.118;15.346;2023-06-22T10:14:12;10.65;;;7.70;;
35897;SDS011;21997;47.118;15.346;2023-06-22T10:16:37;10.23;;;6.88;;
35897;SDS011;21997;47.118;15.346;2023-06-22T10:19:04;12.73;;;7.63;;
35897;SDS011;21997;47.118;15.346;2023-06-22T10:21:30;10.93;;;8.15;;
35897;SDS011;21997;47.118;15.346;2023-06-22T10:23:55;6.82;;;6.13;;
35897;SDS011;21997;47.118;15.346;2023-06-22T10:26:21;9.10;;;7.18;;
35897;SDS011;21997;47.118;15.346;2023-06-22T10:28:46;9.05;;;8.13;;
35897;SDS011;21997;47.118;15.346;2023-06-22T10:31:11;10.57;;;7.13;;
35897;SDS011;21997;47.118;15.346;2023-06-22T10:33:37;9.02;;;7.43;;
35897;SDS011;21997;47.118;15.346;2023-06-22T10:36:02;9.85;;;7.10;;
35897;SDS011;21997;47.118;15.346;2023-06-22T10:38:28;10.00;;;7.38;;
35897;SDS011;21997;47.118;15.346;2023-06-22T10:40:53;12.65;;;7.28;;
35897;SDS011;21997;47.118;15.346;2023-06-22T10:43:18;11.15;;;7.65;;
35897;SDS011;21997;47.118;15.346;2023-06-22T10:45:44;8.43;;;6.85;;
35897;SDS011;21997;47.118;15.346;2023-06-22T10:48:10;9.63;;;7.80;;
35897;SDS011;21997;47.118;15.346;2023-06-22T10:50:35;9.45;;;7.55;;
35897;SDS011;21997;47.118;15.346;2023-06-22T10:53:01;13.40;;;7.97;;
35897;SDS011;21997;47.118;15.346;2023-06-22T10:55:26;11.60;;;8.27;;
35897;SDS011;21997;47.118;15.346;2023-06-22T10:57:51;11.13;;;8.27;;
35897;SDS011;21997;47.118;15.346;2023-06-22T11:00:17;9.38;;;7.85;;
35897;SDS011;21997;47.118;15.346;2023-06-22T11:02:43;10.27;;;7.45;;
35897;SDS011;21997;47.118;15.346;2023-06-22T11:05:08;8.70;;;7.80;;
35897;SDS011;21997;47.118;15.346;2023-06-22T11:07:34;9.35;;;7.65;;
35897;SDS011;21997;47.118;15.346;2023-06-22T11:09:59;9.48;;;7.72;;
35897;SDS011;21997;47.118;15.346;2023-06-22T11:12:25;9.13;;;7.38;;
35897;SDS011;21997;47.118;15.346;2023-06-22T11:14:50;9.10;;;7.63;;
35897;SDS011;21997;47.118;15.346;2023-06-22T11:17:16;11.10;;;7.75;;
35897;SDS011;21997;47.118;15.346;2023-06-22T11:19:42;11.02;;;8.52;;
35897;SDS011;21997;47.118;15.346;2023-06-22T11:22:08;10.68;;;7.93;;
35897;SDS011;21997;47.118;15.346;2023-06-22T11:24:33;12.02;;;7.82;;
35897;SDS011;21997;47.118;15.346;2023-06-22T11:26:59;10.20;;;8.48;;
35897;SDS011;21997;47.118;15.346;2023-06-22T11:29:24;10.68;;;7.18;;
35897;SDS011;21997;47.118;15.346;2023-06-22T11:31:49;9.98;;;7.57;;
35897;SDS011;21997;47.118;15.346;2023-06-22T11:34:15;10.43;;;8.27;;
35897;SDS011;21997;47.118;15.346;2023-06-22T11:36:40;8.77;;;7.15;;
35897;SDS011;21997;47.118;15.346;2023-06-22T11:39:07;9.75;;;8.75;;
35897;SDS011;21997;47.118;15.346;2023-06-22T11:41:34;8.65;;;7.78;;
35897;SDS011;21997;47.118;15.346;2023-06-22T11:44:00;13.00;;;7.75;;
35897;SDS011;21997;47.118;15.346;2023-06-22T11:46:25;11.63;;;7.95;;
35897;SDS011;21997;47.118;15.346;2023-06-22T11:48:50;9.30;;;7.68;;
35897;SDS011;21997;47.118;15.346;2023-06-22T11:51:16;7.60;;;6.40;;
35897;SDS011;21997;47.118;15.346;2023-06-22T11:53:41;12.93;;;8.18;;
35897;SDS011;21997;47.118;15.346;2023-06-22T11:56:06;10.68;;;7.55;;
35897;SDS011;21997;47.118;15.346;2023-06-22T11:58:32;12.60;;;8.25;;
35897;SDS011;21997;47.118;15.346;2023-06-22T12:00:57;11.50;;;7.80;;
35897;SDS011;21997;47.118;15.346;2023-06-22T12:03:22;10.38;;;7.93;;
35897;SDS011;21997;47.118;15.346;2023-06-22T12:05:49;13.88;;;7.93;;
35897;SDS011;21997;47.118;15.346;2023-06-22T12:08:15;8.88;;;7.47;;
35897;SDS011;21997;47.118;15.346;2023-06-22T12:10:40;12.45;;;7.55;;
35897;SDS011;21997;47.118;15.346;2023-06-22T12:13:05;9.98;;;8.48;;
35897;SDS011;21997;47.118;15.346;2023-06-22T12:15:31;10.50;;;7.28;;
35897;SDS011;21997;47.118;15.346;2023-06-22T12:17:56;13.25;;;8.07;;
35897;SDS011;21997;47.118;15.346;2023-06-22T12:20:22;10.52;;;8.13;;
35897;SDS011;21997;47.118;15.346;2023-06-22T12:22:47;9.75;;;8.30;;
35897;SDS011;21997;47.118;15.346;2023-06-22T12:25:13;10.65;;;8.13;;
35897;SDS011;21997;47.118;15.346;2023-06-22T12:27:38;14.07;;;7.97;;
35897;SDS011;21997;47.118;15.346;2023-06-22T12:30:04;11.30;;;7.57;;
35897;SDS011;21997;47.118;15.346;2023-06-22T12:32:30;11.25;;;8.60;;
35897;SDS011;21997;47.118;15.346;2023-06-22T12:34:55;8.85;;;7.88;;
35897;SDS011;21997;47.118;15.346;2023-06-22T12:37:21;9.13;;;8.23;;
35897;SDS011;21997;47.118;15.346;2023-06-22T12:39:47;13.70;;;9.75;;
35897;SDS011;21997;47.118;15.346;2023-06-22T12:42:12;11.02;;;8.15;;
35897;SDS011;21997;47.118;15.346;2023-06-22T12:44:38;10.55;;;8.82;;
35897;SDS011;21997;47.118;15.346;2023-06-22T12:47:06;12.23;;;8.05;;
35897;SDS011;21997;47.118;15.346;2023-06-22T12:49:33;9.57;;;8.43;;
35897;SDS011;21997;47.118;15.346;2023-06-22T12:52:01;10.07;;;8.40;;
35897;SDS011;21997;47.118;15.346;2023-06-22T12:54:27;9.98;;;8.50;;
35897;SDS011;21997;47.118;15.346;2023-06-22T12:56:54;9.68;;;8.30;;
35897;SDS011;21997;47.118;15.346;2023-06-22T12:59:19;11.05;;;9.60;;
35897;SDS011;21997;47.118;15.346;2023-06-22T13:01:45;14.65;;;8.98;;
35897;SDS011;21997;47.118;15.346;2023-06-22T13:04:13;10.27;;;8.75;;
35897;SDS011;21997;47.118;15.346;2023-06-22T13:06:43;10.85;;;8.73;;
35897;SDS011;21997;47.118;15.346;2023-06-22T13:09:12;12.85;;;8.30;;
35897;SDS011;21997;47.118;15.346;2023-06-22T13:11:37;12.85;;;8.40;;
35897;SDS011;21997;47.118;15.346;2023-06-22T13:14:03;9.40;;;8.50;;
35897;SDS011;21997;47.118;15.346;2023-06-22T13:16:28;11.90;;;9.30;;
35897;SDS011;21997;47.118;15.346;2023-06-22T13:18:53;11.57;;;8.60;;
35897;SDS011;21997;47.118;15.346;2023-06-22T13:21:19;10.35;;;8.10;;
35897;SDS011;21997;47.118;15.346;2023-06-22T13:23:44;10.43;;;9.13;;
35897;SDS011;21997;47.118;15.346;2023-06-22T13:26:09;11.23;;;8.35;;
35897;SDS011;21997;47.118;15.346;2023-06-22T13:28:35;9.45;;;8.52;;
35897;SDS011;21997;47.118;15.346;2023-06-22T13:31:00;11.00;;;8.30;;
35897;SDS011;21997;47.118;15.346;2023-06-22T13:33:25;11.18;;;8.70;;
35897;SDS011;21997;47.118;15.346;2023-06-22T13:35:51;11.80;;;8.65;;
35897;SDS011;21997;47.118;15.346;2023-06-22T13:38:16;15.27;;;8.82;;
35897;SDS011;21997;47.118;15.346;2023-06-22T13:40:42;10.98;;;8.48;;
35897;SDS011;21997;47.118;15.346;2023-06-22T13:43:08;10.20;;;9.02;;
35897;SDS011;21997;47.118;15.346;2023-06-22T13:45:33;11.30;;;9.77;;
35897;SDS011;21997;47.118;15.346;2023-06-22T13:47:58;14.00;;;9.23;;
35897;SDS011;21997;47.118;15.346;2023-06-22T13:50:24;14.40;;;8.93;;
35897;SDS011;21997;47.118;15.346;2023-06-22T13:52:49;10.40;;;8.93;;
35897;SDS011;21997;47.118;15.346;2023-06-22T13:55:15;10.15;;;8.20;;
35897;SDS011;21997;47.118;15.346;2023-06-22T13:57:40;14.55;;;8.75;;
35897;SDS011;21997;47.118;15.346;2023-06-22T14:00:06;10.10;;;8.93;;
35897;SDS011;21997;47.118;15.346;2023-06-22T14:02:33;11.23;;;8.77;;
35897;SDS011;21997;47.118;15.346;2023-06-22T14:04:58;11.23;;;8.80;;
35897;SDS011;21997;47.118;15.346;2023-06-22T14:07:24;12.90;;;8.63;;
35897;SDS011;21997;47.118;15.346;2023-06-22T14:09:49;11.52;;;8.18;;
35897;SDS011;21997;47.118;15.346;2023-06-22T14:12:15;11.70;;;8.82;;
35897;SDS011;21997;47.118;15.346;2023-06-22T14:14:42;13.13;;;9.23;;
35897;SDS011;21997;47.118;15.346;2023-06-22T14:17:08;10.95;;;8.82;;
35897;SDS011;21997;47.118;15.346;2023-06-22T14:19:33;11.70;;;9.15;;
35897;SDS011;21997;47.118;15.346;2023-06-22T14:21:58;13.73;;;8.43;;
35897;SDS011;21997;47.118;15.346;2023-06-22T14:24:24;12.88;;;9.38;;
35897;SDS011;21997;47.118;15.346;2023-06-22T14:26:49;10.88;;;8.15;;
35897;SDS011;21997;47.118;15.346;2023-06-22T14:29:15;9.80;;;8.52;;